hwlogo.jpg (8581 bytes)
Home Your Weather Products Services Weather On Your Site Contact
HW Version Logo
Weather Info
Your Weather (Options)
Canadian Weather
International Weather
Enter your " Place, State", US Zip Code or ICAO:  
Forecast Information Radar Information
Qikiqtarjuaq, Nunavut, Canada  Lat: 67.00N, Lon: 64W
ICAO Used: CYVM
Current Conditions
Updated: 10:00 AM EST TUE FEB 20 2018
Sun & Moon Information
Ice Crystals
Ice Crystals
Temp: -27°C
Humidity: 75%
Wind Speed: E 5 MPH
Barometer: 1004 mb
Dewpoint: -30°C
Heat Index: -27°C
Wind Chill: -34°C
Civil Twilight: 6:13 AM EST Moon Phase:
Waxing Crescent Moon
Sunrise: 7:10 AM EST
Sunset: 3:49 PM EST
Civil Twilight: 4:46 PM EST
Forecast for Qikiqtarjuaq, NU:
(Forecast based on TAF for )
0839 AM EST TUE FEB 20 2018
  
MORNING AFTERNOON EVENING OVERNIGHT
Light
Snow
Mostly
Cloudy
Mostly
Cloudy
Mostly
Cloudy
ZoneCast:
Dated: 0839 AM EST TUE FEB 20 2018
Morning...Overcast and light snow with winds from the north at 9 mph. Turning mostly cloudy winds variable in direction at 3 mph.

Afternoon...Mostly cloudy winds variable in direction at 3 mph.

Evening...Mostly cloudy winds variable in direction at 3 mph.

Overnight...Mostly cloudy winds variable in direction at 3 mph.

Original Encoded TAF:
Dated: 0839 AM EST TUE FEB 20 2018
2018/02/20 13:39
TAF CYVM 201238Z 2013/2101 35008KT 2SM -SN OVC030 
      TEMPO 2013/2016 P6SM -SN OVC050 
     FM201600 VRB03KT P6SM BKN050 
      RMK FCST BASED ON AUTO OBS. NXT FCST BY 201900Z